Time;durP1;ratioP1;P1;durP2;ratioP2;P2;SDS_P1;SDS_P2;PMS_P1;PMS_P2;Temp;Humidity;BMP_temperature;BMP_pressure;BME280_temperature;BME280_humidity;BME280_pressure;Samples;Min_cycle;Max_cycle;Signal;HPM_P1;HPM_P2
2024/04/06 00:02:04;;;;;;;1.15;0.70;;;;;;;24.34;32.42;100376.16;5016206;28;96136;-46
2024/04/06 00:04:30;;;;;;;1.00;0.60;;;;;;;24.35;32.51;100366.97;5016988;28;99054;-46
2024/04/06 00:06:58;;;;;;;1.77;0.85;;;;;;;24.34;32.51;100362.63;5015728;28;96774;-47
2024/04/06 00:09:26;;;;;;;1.15;0.60;;;;;;;24.34;32.55;100354.50;5017092;28;95919;-46
2024/04/06 00:11:53;;;;;;;1.10;0.70;;;;;;;24.34;32.33;100353.66;5016219;28;99212;-47
2024/04/06 00:14:19;;;;;;;1.08;0.70;;;;;;;24.34;32.41;100350.94;5016675;28;99071;-47
2024/04/06 00:16:47;;;;;;;1.65;0.80;;;;;;;24.34;32.55;100357.22;5017765;28;96539;-47
2024/04/06 00:19:13;;;;;;;1.27;0.73;;;;;;;24.34;32.53;100365.31;5017042;28;95919;-46
2024/04/06 00:21:40;;;;;;;0.90;0.70;;;;;;;24.34;32.32;100365.31;5015773;28;99257;-47
2024/04/06 00:24:08;;;;;;;1.00;0.70;;;;;;;24.33;32.40;100355.53;5016907;28;98622;-47
2024/04/06 00:27:10;;;;;;;1.05;0.77;;;;;;;24.34;32.35;100353.66;5016577;28;95776;-47
2024/04/06 00:29:37;;;;;;;1.60;0.80;;;;;;;24.34;32.59;100365.31;5017320;28;95943;-47
2024/04/06 00:32:04;;;;;;;1.27;0.70;;;;;;;24.34;32.44;100365.31;5015576;28;99223;-46
2024/04/06 00:34:32;;;;;;;1.05;0.60;;;;;;;24.32;32.60;100353.91;5016572;28;98865;-46
2024/04/06 00:37:01;;;;;;;1.73;0.70;;;;;;;24.33;32.50;100358.25;5016264;28;95791;-46
2024/04/06 00:39:29;;;;;;;1.20;0.70;;;;;;;24.32;32.32;100356.59;5017039;28;95877;-46
2024/04/06 00:42:49;;;;;;;1.45;0.80;;;;;;;24.33;32.41;100362.84;5016050;28;99225;-47
2024/04/06 00:45:17;;;;;;;1.20;0.68;;;;;;;24.32;32.41;100361.19;5015939;28;98761;-46
2024/04/06 00:47:44;;;;;;;1.48;0.80;;;;;;;24.31;32.55;100346.81;5017151;28;95867;-47
2024/04/06 00:50:11;;;;;;;1.35;0.77;;;;;;;24.31;32.35;100348.69;5016607;28;96395;-46
2024/04/06 00:52:39;;;;;;;0.80;0.50;;;;;;;24.31;32.61;100351.41;5015757;28;98917;-46
2024/04/06 00:55:06;;;;;;;1.77;0.70;;;;;;;24.30;32.53;100350.59;5016687;28;99022;-47
2024/04/06 00:58:11;;;;;;;1.15;0.60;;;;;;;24.30;32.65;100358.69;5016066;28;95891;-46
2024/04/06 01:00:38;;;;;;;1.50;0.75;;;;;;;24.29;32.44;100342.69;5016356;28;95944;-47
2024/04/06 01:03:06;;;;;;;3.28;0.70;;;;;;;24.26;32.44;100346.66;5015341;28;98758;-47
2024/04/06 01:05:32;;;;;;;1.40;0.70;;;;;;;24.28;32.31;100354.56;5016932;28;99171;-47
2024/04/06 01:07:59;;;;;;;1.08;0.63;;;;;;;24.27;32.35;100353.75;5020162;28;95863;-47
2024/04/06 01:10:26;;;;;;;0.70;0.50;;;;;;;24.26;32.51;100354.78;5019430;28;95994;-47
2024/04/06 01:16:37;;;;;;;1.05;0.70;;;;;;;24.26;32.44;100353.94;5017304;28;95884;-47
2024/04/06 01:19:03;;;;;;;0.98;0.65;;;;;;;24.26;32.35;100352.06;5019298;28;96350;-46
2024/04/06 01:21:31;;;;;;;1.50;0.70;;;;;;;24.26;32.36;100356.66;5019523;28;95900;-47
2024/04/06 01:23:57;;;;;;;1.95;0.77;;;;;;;24.27;32.41;100356.44;5019961;28;99163;-47
2024/04/06 01:26:26;;;;;;;1.45;0.70;;;;;;;24.26;32.33;100360.19;5019304;28;98696;-47
2024/04/06 01:28:52;;;;;;;0.95;0.65;;;;;;;24.25;32.45;100355.84;5019089;28;96411;-47
2024/04/06 01:31:19;;;;;;;1.20;0.60;;;;;;;24.27;32.23;100355.63;5019691;28;96040;-47
2024/04/06 01:33:49;;;;;;;1.00;0.57;;;;;;;24.26;32.22;100353.94;5019461;28;98884;-47
2024/04/06 01:36:16;;;;;;;1.40;0.50;;;;;;;24.25;32.23;100341.47;5019627;28;98581;-46
2024/04/06 01:38:43;;;;;;;0.95;0.60;;;;;;;24.25;32.48;100339.59;5020097;28;95939;-46
2024/04/06 01:41:10;;;;;;;0.90;0.60;;;;;;;24.25;32.40;100345.00;5019793;28;95883;-47
2024/04/06 01:43:38;;;;;;;0.60;0.50;;;;;;;24.24;32.60;100343.38;5019401;28;98846;-46
2024/04/06 01:46:05;;;;;;;1.38;0.60;;;;;;;24.23;32.48;100336.28;5019826;28;98870;-47
2024/04/06 01:48:31;;;;;;;1.85;0.70;;;;;;;24.23;32.22;100336.28;5019626;28;95887;-46
2024/04/06 01:50:59;;;;;;;0.90;0.57;;;;;;;24.23;32.29;100339.00;5019319;28;95939;-47
2024/04/06 01:53:26;;;;;;;1.35;0.70;;;;;;;24.23;32.27;100339.00;5018429;28;98928;-47
2024/04/06 01:55:53;;;;;;;0.77;0.50;;;;;;;24.22;32.60;100342.75;5019302;28;98847;-47
2024/04/06 01:58:19;;;;;;;1.02;0.70;;;;;;;24.21;32.40;100343.78;5019250;28;95924;-47
2024/04/06 02:00:48;;;;;;;0.75;0.60;;;;;;;24.21;32.40;100354.63;5019848;28;96538;-46
2024/04/06 02:03:14;;;;;;;0.93;0.60;;;;;;;24.20;32.17;100358.38;5018647;28;98910;-46
2024/04/06 02:05:42;;;;;;;0.93;0.60;;;;;;;24.19;32.43;100351.31;5019414;28;98697;-47
2024/04/06 02:08:08;;;;;;;0.80;0.60;;;;;;;24.19;32.45;100351.31;5019094;28;95935;-46
2024/04/06 02:10:35;;;;;;;1.00;0.60;;;;;;;24.19;32.51;100354.03;5019543;28;95920;-46
2024/04/06 02:17:10;;;;;;;1.58;0.70;;;;;;;24.17;32.52;100347.19;5016556;28;95880;-47
2024/04/06 02:19:37;;;;;;;1.70;0.60;;;;;;;24.17;32.51;100348.00;5019034;28;95846;-47
2024/04/06 02:22:04;;;;;;;1.35;0.70;;;;;;;24.16;32.53;100340.97;5018803;28;96046;-46
2024/04/06 02:24:30;;;;;;;0.77;0.50;;;;;;;24.17;32.41;100342.59;5019303;28;99393;-46
2024/04/06 02:26:59;;;;;;;0.95;0.70;;;;;;;24.17;32.32;100342.59;5019487;28;95812;-46
2024/04/06 02:29:26;;;;;;;0.90;0.47;;;;;;;24.17;32.57;100342.59;5019135;28;96401;-47
2024/04/06 02:31:53;;;;;;;1.55;0.60;;;;;;;24.16;32.29;100338.25;5019136;28;96013;-46
2024/04/06 02:34:21;;;;;;;1.30;0.68;;;;;;;24.17;32.44;100339.91;5018800;28;99209;-46
2024/04/06 02:36:48;;;;;;;1.05;0.60;;;;;;;24.17;32.42;100341.78;5019141;28;98654;-46
2024/04/06 02:39:15;;;;;;;0.90;0.57;;;;;;;24.16;32.40;100340.97;5018893;28;95824;-47
2024/04/06 02:41:42;;;;;;;0.70;0.60;;;;;;;24.15;32.50;100333.88;5018633;28;95971;-47
2024/04/06 02:44:08;;;;;;;1.00;0.50;;;;;;;24.16;32.71;100349.06;5017789;28;99174;-46
2024/04/06 02:46:36;;;;;;;1.20;0.70;;;;;;;24.15;32.66;100352.81;5017906;28;98853;-46
2024/04/06 02:49:02;;;;;;;0.70;0.50;;;;;;;24.14;32.31;100353.88;4998889;28;95899;-46
2024/04/06 02:51:31;;;;;;;0.68;0.50;;;;;;;24.14;32.72;100357.41;4998775;28;96307;-47
2024/04/06 02:53:57;;;;;;;1.23;0.50;;;;;;;24.15;32.70;100355.50;4997965;28;99261;-47
2024/04/06 02:56:25;;;;;;;0.80;0.50;;;;;;;24.15;32.55;100360.94;4997758;28;98634;-46
2024/04/06 02:58:51;;;;;;;1.35;0.60;;;;;;;24.13;32.78;100360.31;4998468;28;96759;-46
2024/04/06 03:01:19;;;;;;;0.85;0.60;;;;;;;24.14;32.63;100360.09;4998986;28;95913;-47
2024/04/06 03:03:45;;;;;;;0.65;0.50;;;;;;;24.13;32.61;100363.00;4997644;28;99251;-47
2024/04/06 03:06:19;;;;;;;0.98;0.60;;;;;;;24.12;32.76;100361.38;4997335;28;98937;-47
2024/04/06 03:08:46;;;;;;;0.60;0.50;;;;;;;24.11;32.67;100371.38;4997909;28;95798;-46
2024/04/06 03:11:14;;;;;;;0.70;0.57;;;;;;;24.12;32.70;100361.38;4997863;28;96018;-47
2024/04/06 03:21:13;;;;;;;1.05;0.65;;;;;;;24.08;32.80;100377.22;4985642;28;95921;-46
2024/04/06 03:23:40;;;;;;;0.80;0.50;;;;;;;24.08;32.49;100388.03;4997253;28;95880;-46
2024/04/06 03:26:09;;;;;;;0.82;0.50;;;;;;;24.09;32.77;100388.88;4997313;28;98882;-46
2024/04/06 03:29:09;;;;;;;0.88;0.50;;;;;;;24.08;32.59;100382.63;4997166;28;98658;-46
2024/04/06 03:31:36;;;;;;;1.48;0.60;;;;;;;24.06;32.73;100395.53;4997671;28;95868;-46
2024/04/06 03:34:03;;;;;;;0.63;0.40;;;;;;;24.07;32.67;100399.91;4996668;28;95931;-46
2024/04/06 03:36:30;;;;;;;0.90;0.50;;;;;;;24.05;33.01;100401.97;4996516;28;98726;-46
2024/04/06 03:38:58;;;;;;;0.75;0.60;;;;;;;24.07;32.96;100409.88;5000978;28;98628;-47
2024/04/06 03:41:27;;;;;;;0.60;0.40;;;;;;;24.07;32.91;100408.00;5017828;28;96331;-46
2024/04/06 03:47:35;;;;;;;1.15;0.70;;;;;;;24.06;32.83;100411.78;5015272;28;96038;-47
2024/04/06 03:50:02;;;;;;;1.00;0.60;;;;;;;24.06;33.02;100405.53;5016913;28;98672;-46
2024/04/06 03:52:29;;;;;;;1.23;0.50;;;;;;;24.06;32.85;100403.66;5017192;28;95892;-47
2024/04/06 03:54:55;;;;;;;1.02;0.55;;;;;;;24.06;32.99;100392.84;5017962;28;95922;-47
2024/04/06 04:05:08;;;;;;;1.40;0.70;;;;;;;24.03;32.91;100368.13;5014904;28;95745;-46
2024/04/06 04:07:35;;;;;;;1.15;0.70;;;;;;;24.03;33.18;100368.13;5016948;28;95945;-46
2024/04/06 04:10:03;;;;;;;1.10;0.55;;;;;;;24.01;32.88;100365.63;5017075;28;98917;-46
2024/04/06 04:13:00;;;;;;;0.75;0.50;;;;;;;24.02;33.19;100366.47;5017008;28;99266;-46
2024/04/06 04:15:27;;;;;;;1.05;0.60;;;;;;;24.01;32.91;100364.81;5016922;28;95845;-46
2024/04/06 04:17:54;;;;;;;0.93;0.68;;;;;;;24.00;32.76;100361.28;5016692;28;95975;-47
2024/04/06 04:20:23;;;;;;;0.80;0.50;;;;;;;24.00;32.81;100360.44;5016665;28;99178;-46
2024/04/06 04:22:49;;;;;;;0.60;0.40;;;;;;;24.00;33.02;100358.59;5016502;28;99019;-47
2024/04/06 04:25:16;;;;;;;0.65;0.50;;;;;;;24.00;33.11;100365.84;5016918;28;95915;-46
2024/04/06 04:31:35;;;;;;;0.82;0.50;;;;;;;23.99;32.95;100378.53;5014425;28;95998;-46
2024/04/06 04:34:02;;;;;;;0.80;0.50;;;;;;;24.00;33.02;100382.06;5016523;28;98674;-47
2024/04/06 04:36:30;;;;;;;0.68;0.50;;;;;;;24.01;33.17;100383.75;5016260;28;96143;-47
2024/04/06 04:38:57;;;;;;;0.70;0.43;;;;;;;24.01;33.14;100394.56;5016166;28;95859;-47
2024/04/06 04:41:24;;;;;;;1.00;0.52;;;;;;;24.02;33.10;100398.91;5014132;28;98792;-46
2024/04/06 04:43:50;;;;;;;1.05;0.70;;;;;;;24.02;32.96;100398.91;5016073;28;98671;-46
2024/04/06 04:46:18;;;;;;;0.60;0.50;;;;;;;24.03;32.84;100411.41;5015934;28;95884;-48
2024/04/06 04:48:54;;;;;;;0.88;0.30;;;;;;;24.02;33.31;100413.25;5016537;28;96030;-47
2024/04/06 04:51:21;;;;;;;1.08;0.50;;;;;;;24.02;32.81;100415.13;5015692;28;98710;-46
2024/04/06 04:53:49;;;;;;;1.10;0.60;;;;;;;24.02;33.04;100415.94;5015707;28;98758;-46
2024/04/06 04:56:16;;;;;;;0.75;0.52;;;;;;;24.01;32.94;100411.59;5015502;28;95895;-46
2024/04/06 05:21:52;;;;;;;1.55;0.60;;;;;;;23.96;32.93;100464.69;5013943;28;96226;-46
2024/04/06 05:24:19;;;;;;;0.68;0.50;;;;;;;23.96;33.19;100462.00;5015729;28;95838;-46
2024/04/06 05:26:46;;;;;;;0.55;0.45;;;;;;;23.96;33.04;100464.69;5015812;28;95946;-46
2024/04/06 05:33:05;;;;;;;0.88;0.50;;;;;;;23.98;32.99;100465.31;5015729;28;96023;-47
2024/04/06 05:35:32;;;;;;;0.50;0.40;;;;;;;23.99;33.03;100469.66;5015820;28;95851;-47
2024/04/06 05:38:00;;;;;;;1.00;0.60;;;;;;;24.01;33.14;100472.97;5016410;28;95829;-47
2024/04/06 05:40:27;;;;;;;0.70;0.50;;;;;;;23.99;32.94;100473.19;5015392;28;98755;-46
2024/04/06 05:43:07;;;;;;;0.90;0.50;;;;;;;24.01;33.21;100478.38;5014790;28;98689;-46
2024/04/06 05:45:33;;;;;;;0.82;0.52;;;;;;;24.00;33.07;100491.09;5015771;28;96534;-46
2024/04/06 05:48:03;;;;;;;1.20;0.63;;;;;;;23.99;32.90;100494.81;5016107;28;95899;-46
2024/04/06 05:50:29;;;;;;;1.40;0.70;;;;;;;24.01;33.12;100502.72;5015600;28;98850;-46
2024/04/06 05:52:57;;;;;;;1.10;0.60;;;;;;;24.00;33.14;100501.06;5018783;28;99019;-47
2024/04/06 05:55:24;;;;;;;1.55;0.63;;;;;;;24.01;33.14;100495.44;5018937;28;95846;-46
2024/04/06 05:57:52;;;;;;;1.40;0.60;;;;;;;24.00;33.28;100499.19;5018907;28;95955;-46
2024/04/06 06:00:18;;;;;;;0.73;0.43;;;;;;;24.01;33.27;100497.31;5018800;28;98868;-47
2024/04/06 06:02:46;;;;;;;1.13;0.50;;;;;;;24.01;33.21;100500.03;5018152;28;98721;-47
2024/04/06 06:05:12;;;;;;;1.20;0.60;;;;;;;24.01;33.07;100500.84;5019604;28;96564;-46
2024/04/06 06:07:40;;;;;;;0.68;0.45;;;;;;;24.01;33.21;100498.13;5019198;28;95870;-46
2024/04/06 06:10:07;;;;;;;1.25;0.63;;;;;;;24.02;33.13;100497.06;5018747;28;98775;-46
2024/04/06 06:12:36;;;;;;;1.02;0.50;;;;;;;24.03;33.01;100506.03;5018676;28;98902;-46
2024/04/06 06:15:03;;;;;;;0.77;0.45;;;;;;;24.03;33.18;100506.03;5019318;28;95884;-46
2024/04/06 06:17:30;;;;;;;0.55;0.40;;;;;;;24.04;33.25;100510.41;5019038;28;95873;-46
2024/04/06 06:19:56;;;;;;;0.65;0.38;;;;;;;24.07;32.80;100509.94;5017889;28;98969;-46
2024/04/06 06:22:23;;;;;;;0.73;0.40;;;;;;;24.07;33.00;100509.94;5017773;28;99007;-45
2024/04/06 06:24:50;;;;;;;0.88;0.40;;;;;;;24.07;33.02;100508.06;5018430;28;95827;-46
2024/04/06 06:27:17;;;;;;;0.38;0.30;;;;;;;24.08;32.92;100500.78;5018027;28;95935;-47
2024/04/06 06:33:21;;;;;;;0.93;0.40;;;;;;;24.11;33.00;100511.19;5017888;28;98567;-46
2024/04/06 06:35:53;;;;;;;1.17;0.60;;;;;;;24.12;32.93;100505.53;5018250;28;95940;-46
2024/04/06 06:38:21;;;;;;;0.65;0.43;;;;;;;24.12;32.98;100512.81;5019163;28;95830;-46
2024/04/06 06:40:47;;;;;;;1.27;0.50;;;;;;;24.13;32.85;100514.47;5017936;28;98870;-46
2024/04/06 06:43:39;;;;;;;0.80;0.40;;;;;;;24.14;33.03;100510.75;5018035;28;99040;-46
2024/04/06 06:46:07;;;;;;;0.60;0.43;;;;;;;24.14;33.05;100510.75;5017329;28;95878;-47
2024/04/06 06:48:34;;;;;;;1.38;0.68;;;;;;;24.16;33.07;100503.25;5018493;28;95914;-46
2024/04/06 06:51:03;;;;;;;1.08;0.40;;;;;;;24.16;33.00;100495.13;5017807;28;99052;-47
2024/04/06 06:53:29;;;;;;;1.85;0.40;;;;;;;24.17;33.14;100498.66;5017418;28;98797;-47
2024/04/06 06:55:57;;;;;;;0.60;0.47;;;;;;;24.17;33.11;100499.47;5017257;28;96008;-46
2024/04/06 07:02:15;;;;;;;0.77;0.43;;;;;;;24.16;32.99;100514.06;5016880;28;96172;-47
2024/04/06 07:04:44;;;;;;;0.63;0.40;;;;;;;24.15;32.88;100506.97;5017394;28;98687;-46
2024/04/06 07:07:12;;;;;;;0.40;0.30;;;;;;;24.17;32.90;100504.06;5018131;28;96130;-46
2024/04/06 07:09:38;;;;;;;1.20;0.50;;;;;;;24.20;32.80;100509.84;5017340;28;95907;-46
2024/04/06 07:12:07;;;;;;;0.47;0.38;;;;;;;24.20;33.16;100507.16;5016253;28;99330;-46
2024/04/06 07:18:26;;;;;;;0.50;0.40;;;;;;;24.25;33.02;100507.31;5016847;28;95784;-47
2024/04/06 07:20:54;;;;;;;0.82;0.47;;;;;;;24.28;32.94;100511.47;5017330;28;96309;-46
2024/04/06 07:23:21;;;;;;;1.15;0.40;;;;;;;24.28;33.15;100516.88;5016736;28;99049;-47
2024/04/06 07:25:47;;;;;;;0.47;0.40;;;;;;;24.30;33.08;100514.78;5016778;28;98721;-46
2024/04/06 07:28:15;;;;;;;1.25;0.40;;;;;;;24.31;33.08;100517.25;5017255;28;96555;-46
2024/04/06 07:30:41;;;;;;;0.70;0.43;;;;;;;24.32;32.88;100524.34;5018436;28;96456;-46
2024/04/06 07:33:08;;;;;;;0.30;0.30;;;;;;;24.33;32.98;100515.16;5017350;28;98793;-47
2024/04/06 07:35:34;;;;;;;0.63;0.40;;;;;;;24.36;33.06;100519.31;5017321;28;98696;-47
2024/04/06 07:38:03;;;;;;;0.70;0.40;;;;;;;24.38;32.87;100524.50;5017084;28;95840;-47
2024/04/06 07:40:30;;;;;;;0.95;0.47;;;;;;;24.40;32.80;100531.34;5017600;28;95924;-47
2024/04/06 07:42:57;;;;;;;0.70;0.40;;;;;;;24.43;32.68;100527.38;5017531;28;98914;-46
2024/04/06 07:45:49;;;;;;;0.43;0.32;;;;;;;24.42;32.92;100517.59;5017402;28;98760;-46
2024/04/06 07:48:16;;;;;;;0.40;0.30;;;;;;;24.42;32.70;100520.28;5017647;28;96239;-46
2024/04/06 07:50:44;;;;;;;0.60;0.35;;;;;;;24.42;32.78;100515.69;5018055;28;95894;-48
2024/04/06 07:53:12;;;;;;;0.75;0.50;;;;;;;24.44;32.92;100516.34;5017102;28;99038;-47
2024/04/06 07:55:40;;;;;;;0.80;0.40;;;;;;;24.45;32.70;100511.75;5017608;28;98956;-47
2024/04/06 07:58:09;;;;;;;0.55;0.40;;;;;;;24.48;32.73;100516.75;5017223;28;95829;-47
2024/04/06 08:07:40;;;;;;;1.08;0.50;;;;;;;24.53;32.78;100519.59;5017016;28;98928;-46
2024/04/06 08:10:17;;;;;;;1.38;0.43;;;;;;;24.55;32.87;100517.50;5017065;28;95823;-47
2024/04/06 08:12:45;;;;;;;0.50;0.40;;;;;;;24.56;32.73;100521.88;5017563;28;95955;-46
2024/04/06 08:15:11;;;;;;;0.52;0.40;;;;;;;24.56;32.84;100521.88;5016817;28;99161;-47
2024/04/06 08:17:40;;;;;;;1.10;0.43;;;;;;;24.58;32.82;100522.47;5016953;28;98727;-46
2024/04/06 08:20:07;;;;;;;0.38;0.30;;;;;;;24.60;32.80;100523.09;5017571;28;96130;-46
2024/04/06 08:22:34;;;;;;;0.52;0.38;;;;;;;24.61;32.80;100519.34;5016798;28;96316;-46
2024/04/06 08:25:04;;;;;;;0.68;0.30;;;;;;;24.63;32.75;100517.22;5016450;28;99428;-46
2024/04/06 08:27:34;;;;;;;1.05;0.50;;;;;;;24.64;32.68;100502.66;5016978;28;99137;-47
2024/04/06 08:30:00;;;;;;;0.95;0.40;;;;;;;24.65;32.87;100498.88;5016564;28;95951;-47
2024/04/06 08:32:29;;;;;;;0.77;0.30;;;;;;;24.67;32.81;100475.13;5017086;28;97131;-48
2024/04/06 08:34:57;;;;;;;0.50;0.40;;;;;;;24.70;32.77;100482.81;5016445;28;99095;-46
2024/04/06 08:37:25;;;;;;;0.47;0.35;;;;;;;24.71;32.71;100479.03;5016294;28;99036;-47
2024/04/06 08:39:51;;;;;;;0.60;0.30;;;;;;;24.73;32.86;100489.66;5017175;28;96676;-47
2024/04/06 08:42:19;;;;;;;0.43;0.28;;;;;;;24.74;32.61;100481.31;5017226;28;95962;-46
2024/04/06 08:44:47;;;;;;;0.80;0.32;;;;;;;24.75;32.65;100477.53;5016405;28;99041;-46
2024/04/06 08:47:15;;;;;;;0.38;0.30;;;;;;;24.77;32.76;100474.63;5017031;28;98961;-46
2024/04/06 08:49:41;;;;;;;0.60;0.35;;;;;;;24.78;32.73;100478.97;5016734;28;96010;-46
2024/04/06 08:52:09;;;;;;;0.52;0.30;;;;;;;24.77;32.54;100470.03;5016943;28;95905;-46
2024/04/06 08:54:36;;;;;;;0.43;0.30;;;;;;;24.79;32.66;100472.50;5016335;28;98971;-46
2024/04/06 08:57:04;;;;;;;0.35;0.30;;;;;;;24.82;32.60;100471.22;5016243;28;98847;-47
2024/04/06 08:59:30;;;;;;;0.60;0.30;;;;;;;24.82;32.67;100471.22;5016735;28;95915;-47
2024/04/06 09:01:59;;;;;;;0.45;0.30;;;;;;;24.83;32.65;100470.19;5016730;28;95892;-46
2024/04/06 09:04:25;;;;;;;0.35;0.22;;;;;;;24.83;32.64;100465.59;5016308;28;98861;-46
2024/04/06 09:06:52;;;;;;;0.32;0.20;;;;;;;24.84;32.74;100472.66;5016402;28;98943;-47
2024/04/06 09:09:19;;;;;;;0.80;0.40;;;;;;;24.85;32.74;100476.19;5016844;28;95876;-47
2024/04/06 09:11:46;;;;;;;0.60;0.30;;;;;;;24.87;32.80;100482.22;5016930;28;95913;-47
2024/04/06 09:14:12;;;;;;;0.28;0.20;;;;;;;24.88;32.53;100473.06;5016901;28;98889;-47
2024/04/06 09:16:40;;;;;;;0.85;0.40;;;;;;;24.90;32.60;100477.19;5016014;28;99010;-46
2024/04/06 09:19:09;;;;;;;0.35;0.30;;;;;;;24.91;32.57;100472.59;5016026;28;95852;-46
2024/04/06 09:21:36;;;;;;;0.38;0.30;;;;;;;24.92;32.64;100468.81;5016450;28;95921;-46
2024/04/06 09:24:03;;;;;;;1.95;0.30;;;;;;;24.94;32.71;100472.13;5016464;28;99283;-46
2024/04/06 09:26:33;;;;;;;0.68;0.38;;;;;;;24.94;32.65;100467.53;5016987;28;99260;-47
2024/04/06 09:28:59;;;;;;;0.50;0.28;;;;;;;24.96;32.83;100470.03;5019133;28;95841;-47
2024/04/06 09:31:27;;;;;;;0.50;0.40;;;;;;;24.95;32.74;100463.81;5019879;28;96174;-47
2024/04/06 09:33:54;;;;;;;0.40;0.30;;;;;;;24.98;32.71;100457.06;5019713;28;98834;-46
2024/04/06 09:36:23;;;;;;;0.28;0.20;;;;;;;24.99;32.69;100450.63;5019671;28;98553;-47
2024/04/06 09:38:50;;;;;;;0.60;0.30;;;;;;;24.99;32.66;100447.91;5020115;28;95914;-47
2024/04/06 09:41:18;;;;;;;2.22;0.43;;;;;;;25.00;32.72;100444.13;5019743;28;95866;-46
2024/04/06 09:43:44;;;;;;;1.05;0.30;;;;;;;25.01;32.62;100434.97;5019435;28;98772;-48
2024/04/06 09:46:49;;;;;;;0.40;0.30;;;;;;;25.04;32.73;100441.81;5019054;28;98625;-47
2024/04/06 09:49:16;;;;;;;0.52;0.20;;;;;;;25.05;32.62;100435.34;4999970;28;95857;-46
2024/04/06 09:51:44;;;;;;;0.60;0.28;;;;;;;25.04;32.66;100423.69;5000570;28;96686;-47
2024/04/06 09:54:11;;;;;;;0.45;0.30;;;;;;;25.06;32.66;100427.00;4999862;28;98768;-46
2024/04/06 09:56:38;;;;;;;0.60;0.30;;;;;;;25.07;32.71;100427.81;4999646;28;96554;-48
2024/04/06 10:02:36;;;;;;;1.38;0.40;;;;;;;25.07;32.59;100439.47;4999759;28;95979;-47
2024/04/06 10:05:05;;;;;;;0.47;0.30;;;;;;;25.09;32.67;100447.41;4999602;28;98732;-46
2024/04/06 10:07:34;;;;;;;0.75;0.40;;;;;;;25.10;32.79;100444.44;4999141;28;98960;-45
2024/04/06 10:10:00;;;;;;;0.68;0.30;;;;;;;25.12;32.71;100441.50;4998679;28;96653;-46
2024/04/06 10:12:38;;;;;;;0.40;0.30;;;;;;;25.13;32.59;100427.72;4999543;28;96706;-46
2024/04/06 10:19:12;;;;;;;1.33;0.30;;;;;;;25.14;32.78;100432.09;4996758;28;95903;-46
2024/04/06 10:21:45;;;;;;;0.50;0.30;;;;;;;25.15;32.59;100430.22;4999235;28;96769;-46
2024/04/06 10:24:14;;;;;;;0.35;0.22;;;;;;;25.17;32.47;100428.16;4999444;28;96040;-46
2024/04/06 10:26:45;;;;;;;0.50;0.30;;;;;;;25.17;32.59;100417.31;4998766;28;99231;-47
2024/04/06 10:29:41;;;;;;;0.70;0.30;;;;;;;25.18;32.55;100417.06;4999304;28;99098;-47
2024/04/06 10:32:07;;;;;;;0.35;0.20;;;;;;;25.18;32.53;100416.25;4999316;28;96009;-47
2024/04/06 10:34:34;;;;;;;0.85;0.30;;;;;;;25.19;32.54;100417.88;4999495;28;95937;-46
2024/04/06 10:37:01;;;;;;;0.50;0.30;;;;;;;25.19;32.59;100421.44;4997738;28;99247;-46
2024/04/06 10:39:29;;;;;;;0.30;0.20;;;;;;;25.19;32.51;100416.03;4998010;28;98617;-47
2024/04/06 10:41:56;;;;;;;0.60;0.30;;;;;;;25.20;32.79;100412.25;4999021;28;96072;-46
2024/04/06 10:48:14;;;;;;;1.25;0.17;;;;;;;25.20;32.53;100406.00;5019589;28;96086;-49
2024/04/06 10:50:40;;;;;;;0.43;0.22;;;;;;;25.21;32.75;100408.47;5018760;28;99052;-47
2024/04/06 10:53:07;;;;;;;0.20;0.20;;;;;;;25.21;32.49;100396.81;5018927;28;95964;-47
2024/04/06 10:55:35;;;;;;;0.82;0.30;;;;;;;25.22;32.45;100393.91;5018580;28;95894;-47
2024/04/06 10:58:03;;;;;;;2.17;0.40;;;;;;;25.22;32.52;100396.59;5018370;28;98889;-46
2024/04/06 11:00:50;;;;;;;0.82;0.30;;;;;;;25.23;32.49;100390.13;5018486;28;98615;-47
2024/04/06 11:03:21;;;;;;;0.50;0.30;;;;;;;25.24;32.40;100396.34;5018093;28;95926;-46
2024/04/06 11:05:47;;;;;;;0.63;0.20;;;;;;;25.26;32.31;100398.84;5018911;28;97197;-46
2024/04/06 11:08:15;;;;;;;0.70;0.30;;;;;;;25.26;32.68;100388.00;5018535;28;98642;-46
2024/04/06 11:10:43;;;;;;;0.65;0.30;;;;;;;25.27;32.42;100392.38;5018536;28;98916;-47
2024/04/06 11:13:10;;;;;;;1.52;0.40;;;;;;;25.28;32.42;100385.91;5018803;28;95836;-46
2024/04/06 11:15:55;;;;;;;0.50;0.40;;;;;;;25.29;32.42;100379.41;5018612;28;96192;-47
2024/04/06 11:18:22;;;;;;;0.43;0.30;;;;;;;25.28;32.47;100375.06;5018347;28;98627;-46
2024/04/06 11:20:49;;;;;;;0.70;0.30;;;;;;;25.28;32.42;100375.06;5018456;28;98841;-46
2024/04/06 11:23:19;;;;;;;0.77;0.35;;;;;;;25.29;32.46;100371.28;5018277;28;95899;-46
2024/04/06 11:25:47;;;;;;;0.85;0.30;;;;;;;25.30;32.27;100372.94;5018552;28;95929;-46
2024/04/06 11:28:15;;;;;;;0.45;0.20;;;;;;;25.29;32.40;100365.88;5018218;28;99120;-46
2024/04/06 11:38:52;;;;;;;0.40;0.30;;;;;;;25.30;32.49;100343.97;5015871;28;96782;-47
2024/04/06 11:41:20;;;;;;;0.20;0.20;;;;;;;25.30;32.37;100345.84;5017660;28;98971;-46
2024/04/06 11:43:47;;;;;;;0.22;0.20;;;;;;;25.33;32.37;100339.97;5017681;28;98872;-46
2024/04/06 11:50:49;;;;;;;0.30;0.20;;;;;;;25.32;32.23;100338.31;4997990;28;96057;-46
2024/04/06 11:53:16;;;;;;;0.73;0.20;;;;;;;25.33;32.43;100323.72;4997460;28;99538;-47
2024/04/06 11:55:43;;;;;;;0.50;0.20;;;;;;;25.34;32.37;100319.94;4997611;28;98635;-47
2024/04/06 11:58:11;;;;;;;0.40;0.20;;;;;;;25.34;32.40;100319.94;4997496;28;95850;-47
2024/04/06 12:04:56;;;;;;;0.20;0.20;;;;;;;25.36;32.38;100321.34;4997073;28;96441;-46
2024/04/06 12:07:22;;;;;;;0.60;0.30;;;;;;;25.36;32.27;100315.13;4998144;28;98601;-46
2024/04/06 12:09:50;;;;;;;0.20;0.20;;;;;;;25.37;32.34;100312.16;4997741;28;96132;-46
2024/04/06 12:12:16;;;;;;;1.25;0.35;;;;;;;25.38;32.29;100315.72;4997320;28;95896;-46
2024/04/06 12:18:19;;;;;;;0.65;0.30;;;;;;;25.37;32.37;100298.63;4997540;28;98837;-46
2024/04/06 12:20:46;;;;;;;0.75;0.30;;;;;;;25.38;32.34;100300.28;4997281;28;95971;-47
2024/04/06 12:23:13;;;;;;;0.70;0.20;;;;;;;25.39;32.16;100306.53;4997398;28;96003;-46
2024/04/06 12:25:39;;;;;;;0.30;0.30;;;;;;;25.39;32.33;100295.69;4996983;28;98816;-46
2024/04/06 12:28:07;;;;;;;0.30;0.20;;;;;;;25.40;32.28;100302.75;4997079;28;99136;-46
2024/04/06 12:34:55;;;;;;;0.28;0.20;;;;;;;25.41;32.16;100304.41;4995241;28;95785;-46
2024/04/06 12:37:23;;;;;;;0.20;0.15;;;;;;;25.40;32.31;100300.88;4997179;28;98805;-46
2024/04/06 12:39:50;;;;;;;0.28;0.17;;;;;;;25.41;32.17;100299.00;4997230;28;99124;-46
2024/04/06 12:42:17;;;;;;;0.73;0.20;;;;;;;25.42;32.15;100303.34;4997345;28;95870;-46
2024/04/06 12:52:27;;;;;;;0.50;0.20;;;;;;;25.46;32.18;100293.69;5016237;28;95888;-46
2024/04/06 12:54:54;;;;;;;0.30;0.25;;;;;;;25.47;31.97;100289.09;5016431;28;95843;-45
2024/04/06 13:00:24;;;;;;;;;;;;;;;25.47;32.02;100292.63;5016700;28;98910;-46
2024/04/06 13:02:50;;;;;;;;;;;;;;;25.47;31.97;100291.81;5016836;28;98822;-46
2024/04/06 13:05:18;;;;;;;0.55;0.30;;;;;;;25.48;32.01;100288.84;5017170;28;95891;-47
2024/04/06 13:07:46;;;;;;;0.55;0.30;;;;;;;25.48;32.06;100288.84;5016947;28;95858;-46
2024/04/06 13:10:14;;;;;;;0.45;0.20;;;;;;;25.49;32.02;100289.69;5016852;28;98944;-46
2024/04/06 13:12:40;;;;;;;0.13;0.10;;;;;;;25.49;31.94;100285.09;5017291;28;98973;-46
2024/04/06 13:22:51;;;;;;;0.52;0.20;;;;;;;25.51;31.86;100282.97;5015539;28;95982;-46
2024/04/06 13:25:18;;;;;;;0.45;0.20;;;;;;;25.51;31.94;100272.16;5015832;28;99167;-46
2024/04/06 13:27:46;;;;;;;0.38;0.15;;;;;;;25.52;32.10;100279.19;5016875;28;95872;-46
2024/04/06 13:30:52;;;;;;;0.60;0.20;;;;;;;25.52;31.98;100271.06;5016557;28;96017;-47
2024/04/06 13:33:20;;;;;;;0.50;0.30;;;;;;;25.52;31.97;100268.38;5016413;28;99132;-46
2024/04/06 13:35:47;;;;;;;0.40;0.25;;;;;;;25.51;31.92;100276.72;5016250;28;98742;-46
2024/04/06 13:38:16;;;;;;;0.55;0.30;;;;;;;25.52;31.97;100268.38;5016662;28;95802;-46
2024/04/06 13:40:42;;;;;;;0.32;0.20;;;;;;;25.51;31.94;100265.88;5017196;28;95913;-46
2024/04/06 13:43:09;;;;;;;0.25;0.20;;;;;;;25.51;32.12;100264.00;5002655;28;99145;-47
2024/04/06 13:49:28;;;;;;;0.65;0.20;;;;;;;25.50;32.00;100251.50;4995864;28;95778;-46